Wetterdaten: Woche 20.05.13 - 26.05.13 (KW21)
Datum Zeit Temp. A. Feuchte A. Luftdruck Regen Wind Richtung Taupunkt Windchill Windben
20.05.2013 00:00 9,9 C 96 % 1006,7 hPa 0,0 l/m 0,0 km/h (0 Bft) N 9,3 C 9,9 C 0,0 km/h (0 Bft)
20.05.2013 01:00 9,9 C 97 % 1006,4 hPa 0,0 l/m 0,5 km/h (0 Bft) NO 9,3 C 9,9 C 1,2 km/h (1 Bft)
20.05.2013 02:00 10,3 C 97 % 1006,2 hPa 0,0 l/m 2,1 km/h (1 Bft) NO 9,9 C 10,3 C 4,8 km/h (1 Bft)
20.05.2013 03:00 10,5 C 97 % 1006,3 hPa 0,0 l/m 0,3 km/h (0 Bft) N 10,0 C 10,5 C 0,7 km/h (0 Bft)
20.05.2013 04:00 10,6 C 97 % 1005,8 hPa 0,0 l/m 1,0 km/h (0 Bft) N-NW 10,1 C 10,6 C 2,7 km/h (1 Bft)
20.05.2013 05:00 10,7 C 97 % 1005,8 hPa 0,0 l/m 0,4 km/h (0 Bft) N-NW 10,2 C 10,7 C 1,6 km/h (1 Bft)
20.05.2013 06:00 10,9 C 97 % 1005,5 hPa 0,0 l/m 1,6 km/h (1 Bft) N-NW 10,5 C 10,9 C 3,2 km/h (1 Bft)
20.05.2013 07:00 11,5 C 97 % 1005,7 hPa 0,0 l/m 0,0 km/h (0 Bft) N 11,0 C 11,5 C 0,0 km/h (0 Bft)
20.05.2013 08:00 11,8 C 97 % 1005,9 hPa 0,0 l/m 1,2 km/h (1 Bft) NO 11,3 C 11,8 C 2,3 km/h (1 Bft)
20.05.2013 09:00 11,9 C 97 % 1006,2 hPa 0,2 l/m 0,0 km/h (0 Bft) N 11,5 C 11,9 C 0,0 km/h (0 Bft)
20.05.2013 10:00 12,2 C 97 % 1006,5 hPa 0,2 l/m 0,6 km/h (0 Bft) S 11,7 C 12,2 C 1,7 km/h (1 Bft)
20.05.2013 11:00 12,4 C 96 % 1007,0 hPa 0,4 l/m 1,8 km/h (1 Bft) W-SW 11,7 C 12,4 C 5,2 km/h (1 Bft)
20.05.2013 12:00 11,8 C 96 % 1007,5 hPa 0,6 l/m 6,3 km/h (2 Bft) S 11,2 C 11,5 C 14,5 km/h (3 Bft)
20.05.2013 13:00 11,7 C 95 % 1008,0 hPa 0,0 l/m 7,0 km/h (2 Bft) SW 10,9 C 11,2 C 15,8 km/h (3 Bft)
20.05.2013 14:00 12,7 C 92 % 1008,2 hPa 0,0 l/m 5,3 km/h (1 Bft) SW 11,4 C 12,7 C 12,1 km/h (2 Bft)
20.05.2013 15:00 13,6 C 86 % 1008,5 hPa 0,0 l/m 4,5 km/h (1 Bft) S-SW 11,4 C 13,6 C 10,7 km/h (2 Bft)
20.05.2013 16:00 14,5 C 82 % 1008,5 hPa 0,0 l/m 4,7 km/h (1 Bft) S-SW 11,4 C 14,5 C 11,3 km/h (2 Bft)
20.05.2013 17:00 15,1 C 80 % 1008,4 hPa 0,0 l/m 3,7 km/h (1 Bft) SW 11,7 C 15,1 C 9,7 km/h (2 Bft)
20.05.2013 18:00 15,1 C 80 % 1008,4 hPa 0,0 l/m 3,9 km/h (1 Bft) W-SW 11,7 C 15,1 C 9,7 km/h (2 Bft)
20.05.2013 19:00 14,8 C 82 % 1008,5 hPa 0,0 l/m 1,6 km/h (1 Bft) W 11,8 C 14,8 C 5,5 km/h (2 Bft)
20.05.2013 20:00 14,2 C 84 % 1008,9 hPa 0,0 l/m 0,1 km/h (0 Bft) N 11,6 C 14,2 C 0,4 km/h (0 Bft)
20.05.2013 21:00 13,5 C 85 % 1009,5 hPa 0,0 l/m 3,0 km/h (1 Bft) W-SW 11,0 C 13,5 C 8,9 km/h (2 Bft)
20.05.2013 22:00 12,9 C 85 % 1009,6 hPa 0,0 l/m 4,1 km/h (1 Bft) SW 10,4 C 12,9 C 10,2 km/h (2 Bft)
20.05.2013 23:00 12,6 C 86 % 1009,8 hPa 0,0 l/m 3,0 km/h (1 Bft) S 10,3 C 12,6 C 9,1 km/h (2 Bft)
21.05.2013 00:00 12,1 C 89 % 1009,9 hPa 0,0 l/m 2,8 km/h (1 Bft) W-SW 10,2 C 12,1 C 7,9 km/h (2 Bft)
21.05.2013 01:00 11,7 C 90 % 1010,0 hPa 0,0 l/m 2,9 km/h (1 Bft) SW 10,1 C 11,7 C 8,7 km/h (2 Bft)
21.05.2013 02:00 11,3 C 92 % 1009,8 hPa 0,0 l/m 2,4 km/h (1 Bft) SW 10,1 C 11,3 C 7,4 km/h (2 Bft)
21.05.2013 03:00 11,1 C 93 % 1009,7 hPa 0,0 l/m 1,7 km/h (1 Bft) SW 10,0 C 11,1 C 5,6 km/h (2 Bft)
21.05.2013 04:00 10,9 C 93 % 1009,6 hPa 0,0 l/m 2,2 km/h (1 Bft) SW 9,8 C 10,9 C 5,4 km/h (2 Bft)
21.05.2013 05:00 10,7 C 93 % 1009,5 hPa 0,0 l/m 1,9 km/h (1 Bft) SW 9,6 C 10,7 C 5,6 km/h (2 Bft)
21.05.2013 06:00 10,5 C 91 % 1009,4 hPa 0,0 l/m 2,4 km/h (1 Bft) SW 9,1 C 10,5 C 6,1 km/h (2 Bft)
21.05.2013 07:00 10,6 C 90 % 1009,2 hPa 0,0 l/m 3,4 km/h (1 Bft) SW 9,0 C 10,6 C 9,3 km/h (2 Bft)
21.05.2013 08:00 11,0 C 89 % 1009,4 hPa 0,0 l/m 3,5 km/h (1 Bft) SW 9,2 C 11,0 C 8,6 km/h (2 Bft)
21.05.2013 09:00 11,8 C 87 % 1009,5 hPa 0,0 l/m 4,5 km/h (1 Bft) S-SW 9,7 C 11,8 C 10,9 km/h (2 Bft)
21.05.2013 10:00 12,8 C 84 % 1009,6 hPa 0,0 l/m 4,2 km/h (1 Bft) S-SW 10,2 C 12,8 C 10,1 km/h (2 Bft)
21.05.2013 11:00 13,8 C 83 % 1009,5 hPa 0,0 l/m 4,7 km/h (1 Bft) SW 10,9 C 13,8 C 11,1 km/h (2 Bft)
21.05.2013 12:00 15,2 C 78 % 1009,3 hPa 0,0 l/m 6,5 km/h (2 Bft) S-SW 11,4 C 14,8 C 14,1 km/h (3 Bft)
21.05.2013 13:00 15,5 C 75 % 1009,0 hPa 0,0 l/m 5,2 km/h (1 Bft) S-SW 11,1 C 15,4 C 12,1 km/h (2 Bft)
21.05.2013 14:00 15,4 C 74 % 1008,6 hPa 0,0 l/m 5,1 km/h (1 Bft) S-SW 10,8 C 15,4 C 11,2 km/h (2 Bft)
21.05.2013 15:00 16,1 C 71 % 1008,2 hPa 0,0 l/m 5,8 km/h (2 Bft) S-SW 10,9 C 16,0 C 12,2 km/h (2 Bft)
21.05.2013 16:00 16,4 C 70 % 1007,9 hPa 0,0 l/m 3,5 km/h (1 Bft) SW 10,9 C 16,4 C 8,2 km/h (2 Bft)
21.05.2013 17:00 16,2 C 69 % 1007,6 hPa 0,0 l/m 2,7 km/h (1 Bft) SW 10,6 C 16,2 C 7,0 km/h (2 Bft)
21.05.2013 18:00 16,3 C 71 % 1007,2 hPa 0,0 l/m 1,9 km/h (1 Bft) W 10,9 C 16,3 C 6,4 km/h (2 Bft)
21.05.2013 19:00 15,2 C 78 % 1006,9 hPa 0,0 l/m 0,3 km/h (0 Bft) W-SW 11,3 C 15,2 C 1,5 km/h (1 Bft)
21.05.2013 20:00 14,4 C 80 % 1006,7 hPa 0,0 l/m 0,2 km/h (0 Bft) N 10,9 C 14,4 C 0,9 km/h (0 Bft)
21.05.2013 21:00 13,6 C 84 % 1006,7 hPa 0,0 l/m 0,7 km/h (0 Bft) W 11,0 C 13,6 C 2,3 km/h (1 Bft)
21.05.2013 22:00 12,8 C 87 % 1006,7 hPa 0,0 l/m 1,2 km/h (1 Bft) W-SW 10,7 C 12,8 C 4,8 km/h (1 Bft)
21.05.2013 23:00 12,3 C 89 % 1006,3 hPa 0,0 l/m 1,8 km/h (1 Bft) SW 10,5 C 12,3 C 6,1 km/h (2 Bft)
22.05.2013 00:00 11,8 C 93 % 1005,8 hPa 0,2 l/m 1,8 km/h (1 Bft) SW 10,6 C 11,8 C 5,7 km/h (2 Bft)
22.05.2013 01:00 11,4 C 94 % 1005,1 hPa 0,6 l/m 2,9 km/h (1 Bft) SW 10,5 C 11,4 C 8,9 km/h (2 Bft)
22.05.2013 02:00 11,0 C 94 % 1004,2 hPa 1,6 l/m 3,1 km/h (1 Bft) SW 10,1 C 11,0 C 8,2 km/h (2 Bft)
22.05.2013 03:00 10,8 C 95 % 1003,5 hPa 2,8 l/m 3,1 km/h (1 Bft) SW 10,0 C 10,8 C 8,0 km/h (2 Bft)
22.05.2013 04:00 10,0 C 94 % 1003,0 hPa 1,6 l/m 3,1 km/h (1 Bft) W 9,1 C 10,0 C 8,4 km/h (2 Bft)
22.05.2013 05:00 9,4 C 94 % 1002,9 hPa 3,4 l/m 2,9 km/h (1 Bft) W-SW 8,5 C 9,4 C 9,0 km/h (2 Bft)
22.05.2013 06:00 9,0 C 95 % 1002,8 hPa 3,6 l/m 3,0 km/h (1 Bft) W-SW 8,2 C 9,0 C 9,5 km/h (2 Bft)
22.05.2013 07:00 8,6 C 94 % 1002,9 hPa 3,6 l/m 3,3 km/h (1 Bft) W-SW 7,7 C 8,6 C 9,5 km/h (2 Bft)
22.05.2013 08:00 8,2 C 94 % 1003,3 hPa 3,6 l/m 3,8 km/h (1 Bft) W 7,3 C 8,2 C 11,6 km/h (2 Bft)
22.05.2013 09:00 8,0 C 94 % 1003,8 hPa 2,2 l/m 5,9 km/h (2 Bft) W 7,0 C 7,6 C 14,0 km/h (3 Bft)
22.05.2013 10:00 7,6 C 93 % 1004,2 hPa 2,4 l/m 5,1 km/h (1 Bft) W-NW 6,6 C 7,5 C 13,0 km/h (3 Bft)
22.05.2013 11:00 7,3 C 93 % 1004,7 hPa 2,8 l/m 5,3 km/h (1 Bft) W 6,3 C 7,2 C 14,6 km/h (3 Bft)
22.05.2013 12:00 7,1 C 95 % 1005,0 hPa 2,6 l/m 5,6 km/h (2 Bft) W-SW 6,4 C 7,1 C 16,0 km/h (3 Bft)
22.05.2013 13:00 7,0 C 96 % 1005,4 hPa 1,8 l/m 5,0 km/h (1 Bft) NW 6,5 C 7,0 C 14,8 km/h (3 Bft)
22.05.2013 14:00 7,3 C 96 % 1005,8 hPa 0,0 l/m 7,0 km/h (2 Bft) NW 6,8 C 6,7 C 17,2 km/h (3 Bft)
22.05.2013 15:00 7,8 C 95 % 1006,0 hPa 0,0 l/m 8,3 km/h (2 Bft) W 7,0 C 6,3 C 20,9 km/h (4 Bft)
22.05.2013 16:00 9,2 C 84 % 1006,2 hPa 0,0 l/m 8,7 km/h (2 Bft) W 6,7 C 7,5 C 20,9 km/h (4 Bft)
22.05.2013 17:00 9,5 C 78 % 1006,8 hPa 0,0 l/m 9,7 km/h (2 Bft) NW 5,9 C 7,3 C 23,2 km/h (4 Bft)
22.05.2013 18:00 9,1 C 78 % 1007,4 hPa 0,0 l/m 8,1 km/h (2 Bft) NW 5,5 C 7,9 C 21,0 km/h (4 Bft)
22.05.2013 19:00 9,0 C 77 % 1007,7 hPa 0,0 l/m 7,3 km/h (2 Bft) W 5,2 C 8,2 C 18,9 km/h (3 Bft)
22.05.2013 20:00 8,7 C 74 % 1008,4 hPa 0,0 l/m 9,1 km/h (2 Bft) W-NW 4,2 C 6,7 C 20,6 km/h (4 Bft)
22.05.2013 21:00 8,1 C 71 % 1009,1 hPa 0,0 l/m 7,6 km/h (2 Bft) NW 3,3 C 7,0 C 18,4 km/h (3 Bft)
22.05.2013 22:00 7,3 C 76 % 1009,7 hPa 0,0 l/m 5,3 km/h (1 Bft) NW 3,4 C 7,1 C 14,4 km/h (3 Bft)
22.05.2013 23:00 6,7 C 79 % 1009,7 hPa 0,0 l/m 3,6 km/h (1 Bft) W 3,4 C 6,7 C 10,1 km/h (2 Bft)
23.05.2013 00:00 5,6 C 82 % 1009,7 hPa 0,0 l/m 3,3 km/h (1 Bft) W 2,8 C 5,6 C 9,0 km/h (2 Bft)
23.05.2013 01:00 4,6 C 86 % 1009,5 hPa 0,0 l/m 1,8 km/h (1 Bft) W 2,4 C 4,6 C 5,9 km/h (2 Bft)
23.05.2013 02:00 3,3 C 90 % 1009,5 hPa 0,0 l/m 0,4 km/h (0 Bft) N 1,8 C 3,3 C 1,9 km/h (1 Bft)
23.05.2013 03:00 2,5 C 93 % 1009,1 hPa 0,0 l/m 0,6 km/h (0 Bft) S-SW 1,4 C 2,5 C 2,5 km/h (1 Bft)
23.05.2013 04:00 2,0 C 94 % 1008,9 hPa 0,0 l/m 0,6 km/h (0 Bft) S-SW 1,0 C 2,0 C 1,9 km/h (1 Bft)
23.05.2013 05:00 1,7 C 95 % 1008,5 hPa 0,0 l/m 0,8 km/h (0 Bft) S-SW 0,9 C 1,7 C 2,3 km/h (1 Bft)
23.05.2013 06:00 3,1 C 93 % 1008,7 hPa 0,0 l/m 1,5 km/h (1 Bft) SW 2,1 C 3,1 C 4,8 km/h (1 Bft)
23.05.2013 07:00 4,8 C 90 % 1008,9 hPa 0,0 l/m 3,3 km/h (1 Bft) SW 3,3 C 4,8 C 8,2 km/h (2 Bft)
23.05.2013 08:00 6,0 C 86 % 1008,8 hPa 0,0 l/m 3,7 km/h (1 Bft) W 3,8 C 6,0 C 9,5 km/h (2 Bft)
23.05.2013 09:00 7,8 C 81 % 1008,5 hPa 0,0 l/m 4,1 km/h (1 Bft) W 4,7 C 7,8 C 9,7 km/h (2 Bft)
23.05.2013 10:00 9,3 C 73 % 1008,4 hPa 0,0 l/m 4,3 km/h (1 Bft) W 4,8 C 9,3 C 9,5 km/h (2 Bft)
23.05.2013 11:00 10,1 C 70 % 1008,1 hPa 0,0 l/m 4,4 km/h (1 Bft) SW 4,9 C 10,1 C 10,5 km/h (2 Bft)
23.05.2013 12:00 11,1 C 63 % 1007,6 hPa 0,0 l/m 2,1 km/h (1 Bft) S 4,4 C 11,1 C 5,7 km/h (2 Bft)
23.05.2013 13:00 11,6 C 59 % 1007,0 hPa 0,0 l/m 1,6 km/h (1 Bft) S-SW 3,7 C 11,6 C 4,9 km/h (1 Bft)
23.05.2013 14:00 11,0 C 61 % 1006,7 hPa 0,0 l/m 3,2 km/h (1 Bft) SO 3,7 C 11,0 C 6,7 km/h (2 Bft)
23.05.2013 15:00 11,5 C 59 % 1006,5 hPa 0,0 l/m 3,4 km/h (1 Bft) O-SO 3,7 C 11,5 C 7,1 km/h (2 Bft)
23.05.2013 16:00 11,1 C 62 % 1006,3 hPa 0,0 l/m 4,0 km/h (1 Bft) O-SO 4,2 C 11,1 C 8,0 km/h (2 Bft)
23.05.2013 17:00 11,1 C 63 % 1006,1 hPa 0,0 l/m 1,7 km/h (1 Bft) O 4,3 C 11,1 C 4,4 km/h (1 Bft)
23.05.2013 18:00 10,4 C 70 % 1006,3 hPa 0,0 l/m 2,7 km/h (1 Bft) S 5,2 C 10,4 C 6,6 km/h (2 Bft)
23.05.2013 19:00 8,2 C 88 % 1006,7 hPa 0,6 l/m 2,6 km/h (1 Bft) W 6,3 C 8,2 C 6,8 km/h (2 Bft)
23.05.2013 20:00 7,3 C 92 % 1006,8 hPa 1,2 l/m 1,2 km/h (1 Bft) W 6,1 C 7,3 C 3,7 km/h (1 Bft)
23.05.2013 21:00 6,9 C 93 % 1006,9 hPa 0,4 l/m 0,0 km/h (0 Bft) N 5,9 C 6,9 C 0,3 km/h (0 Bft)
23.05.2013 22:00 6,7 C 94 % 1007,0 hPa 0,2 l/m 1,4 km/h (1 Bft) N 5,8 C 6,7 C 3,1 km/h (1 Bft)
23.05.2013 23:00 6,6 C 95 % 1007,0 hPa 0,2 l/m 0,0 km/h (0 Bft) N 5,9 C 6,6 C 0,1 km/h (0 Bft)
24.05.2013 00:00 6,5 C 95 % 1007,4 hPa 0,0 l/m 0,0 km/h (0 Bft) N 5,8 C 6,5 C 0,0 km/h (0 Bft)
24.05.2013 01:00 6,6 C 95 % 1007,6 hPa 0,2 l/m 0,1 km/h (0 Bft) N 5,9 C 6,6 C 0,4 km/h (0 Bft)
24.05.2013 02:00 6,2 C 95 % 1007,9 hPa 1,4 l/m 1,0 km/h (0 Bft) W 5,5 C 6,2 C 4,1 km/h (1 Bft)
24.05.2013 03:00 5,5 C 95 % 1008,3 hPa 2,8 l/m 2,0 km/h (1 Bft) W-SW 4,7 C 5,5 C 6,7 km/h (2 Bft)
24.05.2013 04:00 5,3 C 95 % 1008,4 hPa 1,2 l/m 0,4 km/h (0 Bft) W-NW 4,6 C 5,3 C 2,3 km/h (1 Bft)
24.05.2013 05:00 5,2 C 95 % 1008,8 hPa 1,0 l/m 1,4 km/h (1 Bft) S-SW 4,4 C 5,2 C 4,9 km/h (1 Bft)
24.05.2013 06:00 4,9 C 95 % 1009,3 hPa 0,0 l/m 0,7 km/h (0 Bft) W-NW 4,2 C 4,9 C 2,5 km/h (1 Bft)
24.05.2013 07:00 5,1 C 95 % 1010,0 hPa 0,0 l/m 1,2 km/h (1 Bft) W-NW 4,3 C 5,1 C 3,9 km/h (1 Bft)
24.05.2013 08:00 5,7 C 92 % 1010,4 hPa 0,0 l/m 2,6 km/h (1 Bft) W 4,6 C 5,7 C 6,8 km/h (2 Bft)
24.05.2013 09:00 7,0 C 89 % 1010,9 hPa 0,0 l/m 4,0 km/h (1 Bft) NW 5,3 C 7,0 C 9,5 km/h (2 Bft)
24.05.2013 10:00 7,6 C 86 % 1011,5 hPa 0,0 l/m 4,4 km/h (1 Bft) NW 5,4 C 7,4 C 9,4 km/h (2 Bft)
24.05.2013 11:00 8,5 C 82 % 1012,0 hPa 0,0 l/m 5,0 km/h (1 Bft) W-NW 5,5 C 8,5 C 11,2 km/h (2 Bft)
24.05.2013 12:00 9,8 C 79 % 1012,2 hPa 0,0 l/m 7,3 km/h (2 Bft) N-NW 6,3 C 8,9 C 14,2 km/h (3 Bft)
24.05.2013 13:00 10,3 C 75 % 1012,1 hPa 0,0 l/m 7,2 km/h (2 Bft) N-NW 6,1 C 9,4 C 14,1 km/h (3 Bft)
24.05.2013 14:00 10,4 C 76 % 1012,3 hPa 0,0 l/m 8,6 km/h (2 Bft) N 6,4 C 8,9 C 15,8 km/h (3 Bft)
24.05.2013 15:00 11,2 C 74 % 1012,2 hPa 0,0 l/m 7,7 km/h (2 Bft) N-NO 6,8 C 10,3 C 14,5 km/h (3 Bft)
24.05.2013 16:00 11,1 C 75 % 1012,3 hPa 0,0 l/m 6,0 km/h (2 Bft) N 6,7 C 10,8 C 10,7 km/h (2 Bft)
24.05.2013 17:00 11,1 C 73 % 1012,4 hPa 0,0 l/m 5,5 km/h (2 Bft) N-NO 6,5 C 10,9 C 9,7 km/h (2 Bft)
24.05.2013 18:00 11,2 C 73 % 1012,5 hPa 0,0 l/m 5,7 km/h (2 Bft) N-NW 6,5 C 11,0 C 9,8 km/h (2 Bft)
24.05.2013 19:00 11,6 C 72 % 1012,6 hPa 0,0 l/m 6,8 km/h (2 Bft) N 6,6 C 11,2 C 11,8 km/h (2 Bft)
24.05.2013 20:00 10,3 C 78 % 1012,8 hPa 0,0 l/m 3,2 km/h (1 Bft) N-NO 6,5 C 10,3 C 6,3 km/h (2 Bft)
24.05.2013 21:00 8,6 C 85 % 1013,0 hPa 0,0 l/m 0,2 km/h (0 Bft) N-NW 6,2 C 8,6 C 1,4 km/h (1 Bft)
24.05.2013 22:00 8,1 C 86 % 1013,1 hPa 0,0 l/m 0,2 km/h (0 Bft) NW 5,9 C 8,1 C 1,2 km/h (1 Bft)
24.05.2013 23:00 8,2 C 85 % 1013,1 hPa 0,0 l/m 1,4 km/h (1 Bft) NW 5,8 C 8,2 C 3,7 km/h (1 Bft)
25.05.2013 00:00 7,9 C 86 % 1013,0 hPa 0,0 l/m 1,5 km/h (1 Bft) NW 5,8 C 7,9 C 4,0 km/h (1 Bft)
25.05.2013 01:00 7,4 C 89 % 1012,8 hPa 0,0 l/m 1,0 km/h (0 Bft) NW 5,7 C 7,4 C 3,6 km/h (1 Bft)
25.05.2013 02:00 7,5 C 90 % 1012,5 hPa 0,0 l/m 2,3 km/h (1 Bft) N-NW 6,0 C 7,5 C 5,5 km/h (2 Bft)
25.05.2013 03:00 7,3 C 91 % 1012,3 hPa 0,0 l/m 0,0 km/h (0 Bft) N 6,0 C 7,3 C 0,4 km/h (0 Bft)
25.05.2013 04:00 7,0 C 91 % 1012,0 hPa 0,0 l/m 0,3 km/h (0 Bft) N 5,6 C 7,0 C 1,5 km/h (1 Bft)
25.05.2013 05:00 6,5 C 92 % 1011,8 hPa 0,0 l/m 0,5 km/h (0 Bft) W 5,3 C 6,5 C 2,7 km/h (1 Bft)
25.05.2013 06:00 6,6 C 92 % 1011,7 hPa 0,0 l/m 0,9 km/h (0 Bft) W 5,4 C 6,6 C 3,6 km/h (1 Bft)
25.05.2013 07:00 7,2 C 91 % 1011,4 hPa 0,0 l/m 1,4 km/h (1 Bft) W-NW 5,9 C 7,2 C 4,8 km/h (1 Bft)
25.05.2013 08:00 9,0 C 87 % 1011,2 hPa 0,0 l/m 3,5 km/h (1 Bft) W 7,0 C 9,0 C 9,5 km/h (2 Bft)
25.05.2013 09:00 9,6 C 87 % 1011,2 hPa 0,0 l/m 4,7 km/h (1 Bft) S-SW 7,5 C 9,6 C 11,8 km/h (2 Bft)
25.05.2013 10:00 11,0 C 83 % 1011,1 hPa 0,0 l/m 5,1 km/h (1 Bft) W-NW 8,2 C 11,0 C 12,8 km/h (3 Bft)
25.05.2013 11:00 12,4 C 78 % 1010,7 hPa 0,0 l/m 5,3 km/h (1 Bft) W-NW 8,6 C 12,3 C 12,9 km/h (3 Bft)
25.05.2013 12:00 12,2 C 75 % 1010,5 hPa 0,0 l/m 7,4 km/h (2 Bft) NW 7,9 C 11,3 C 16,5 km/h (3 Bft)
25.05.2013 13:00 10,9 C 82 % 1010,4 hPa 0,2 l/m 7,2 km/h (2 Bft) NW 7,9 C 10,1 C 15,7 km/h (3 Bft)
25.05.2013 14:00 9,8 C 89 % 1010,4 hPa 1,6 l/m 4,5 km/h (1 Bft) NW 8,0 C 9,8 C 10,6 km/h (2 Bft)
25.05.2013 15:00 9,1 C 90 % 1010,5 hPa 1,0 l/m 5,1 km/h (1 Bft) W 7,5 C 9,1 C 14,1 km/h (3 Bft)
25.05.2013 16:00 8,2 C 91 % 1010,6 hPa 1,6 l/m 5,1 km/h (1 Bft) W-SW 6,8 C 8,2 C 13,6 km/h (3 Bft)
25.05.2013 17:00 7,8 C 92 % 1010,3 hPa 1,4 l/m 5,4 km/h (1 Bft) NW 6,5 C 7,7 C 14,2 km/h (3 Bft)
25.05.2013 18:00 7,7 C 93 % 1009,8 hPa 1,4 l/m 4,8 km/h (1 Bft) W-SW 6,6 C 7,7 C 13,2 km/h (3 Bft)
25.05.2013 19:00 7,7 C 94 % 1009,5 hPa 2,0 l/m 4,0 km/h (1 Bft) W-SW 6,7 C 7,7 C 10,5 km/h (2 Bft)
25.05.2013 20:00 7,6 C 94 % 1009,1 hPa 2,2 l/m 3,8 km/h (1 Bft) W 6,7 C 7,6 C 10,3 km/h (2 Bft)
25.05.2013 21:00 7,6 C 95 % 1009,1 hPa 2,8 l/m 2,5 km/h (1 Bft) W 6,9 C 7,6 C 7,2 km/h (2 Bft)
25.05.2013 22:00 7,8 C 95 % 1009,0 hPa 1,4 l/m 1,5 km/h (1 Bft) W 7,1 C 7,8 C 4,7 km/h (1 Bft)
25.05.2013 23:00 7,8 C 96 % 1008,8 hPa 2,8 l/m 1,0 km/h (0 Bft) W-SW 7,3 C 7,8 C 4,4 km/h (1 Bft)
26.05.2013 00:00 7,8 C 97 % 1008,4 hPa 1,4 l/m 1,9 km/h (1 Bft) SW 7,4 C 7,8 C 5,3 km/h (1 Bft)
26.05.2013 01:00 7,9 C 97 % 1007,9 hPa 1,2 l/m 2,6 km/h (1 Bft) W 7,5 C 7,9 C 7,8 km/h (2 Bft)
26.05.2013 02:00 8,0 C 97 % 1007,1 hPa 4,0 l/m 3,0 km/h (1 Bft) W 7,5 C 8,0 C 9,5 km/h (2 Bft)
26.05.2013 03:00 8,2 C 97 % 1006,1 hPa 0,0 l/m 3,7 km/h (1 Bft) W 7,7 C 8,2 C 10,1 km/h (2 Bft)
26.05.2013 04:00 8,5 C 97 % 1005,4 hPa 0,6 l/m 2,7 km/h (1 Bft) W-NW 8,0 C 8,5 C 7,9 km/h (2 Bft)
26.05.2013 05:00 8,7 C 97 % 1005,0 hPa 4,2 l/m 2,1 km/h (1 Bft) W 8,3 C 8,7 C 7,1 km/h (2 Bft)
26.05.2013 06:00 9,2 C 97 % 1004,6 hPa 2,6 l/m 2,1 km/h (1 Bft) W 8,7 C 9,2 C 6,4 km/h (2 Bft)
26.05.2013 07:00 9,9 C 98 % 1004,1 hPa 1,2 l/m 3,2 km/h (1 Bft) W 9,6 C 9,9 C 8,6 km/h (2 Bft)
26.05.2013 08:00 10,4 C 98 % 1003,7 hPa 2,0 l/m 4,3 km/h (1 Bft) NW 10,1 C 10,4 C 10,6 km/h (2 Bft)
26.05.2013 09:00 10,8 C 98 % 1003,4 hPa 1,8 l/m 4,2 km/h (1 Bft) W 10,5 C 10,8 C 9,8 km/h (2 Bft)
26.05.2013 10:00 10,9 C 98 % 1003,2 hPa 2,6 l/m 4,8 km/h (1 Bft) W 10,6 C 10,8 C 11,3 km/h (2 Bft)
26.05.2013 11:00 11,1 C 98 % 1002,8 hPa 3,8 l/m 5,5 km/h (2 Bft) W 10,8 C 11,0 C 14,8 km/h (3 Bft)
26.05.2013 12:00 11,1 C 98 % 1002,7 hPa 3,0 l/m 4,5 km/h (1 Bft) SW 10,8 C 11,0 C 8,9 km/h (2 Bft)
26.05.2013 13:00 11,0 C 98 % 1002,2 hPa 2,2 l/m 5,7 km/h (2 Bft) W-SW 10,6 C 10,9 C 14,0 km/h (3 Bft)
26.05.2013 14:00 11,5 C 98 % 1001,9 hPa 2,2 l/m 3,6 km/h (1 Bft) W-SW 11,2 C 11,5 C 9,5 km/h (2 Bft)
26.05.2013 15:00 11,8 C 98 % 1002,1 hPa 2,2 l/m 7,8 km/h (2 Bft) N-NW 11,5 C 10,6 C 14,1 km/h (3 Bft)
26.05.2013 16:00 11,7 C 98 % 1002,1 hPa 1,8 l/m 5,2 km/h (1 Bft) N-NW 11,4 C 11,7 C 9,8 km/h (2 Bft)
26.05.2013 17:00 11,7 C 98 % 1002,2 hPa 1,6 l/m 5,6 km/h (2 Bft) N-NW 11,4 C 11,6 C 10,6 km/h (2 Bft)
26.05.2013 18:00 11,6 C 98 % 1002,3 hPa 1,4 l/m 3,2 km/h (1 Bft) NW 11,3 C 11,6 C 7,1 km/h (2 Bft)
26.05.2013 19:00 11,5 C 98 % 1002,3 hPa 0,8 l/m 3,4 km/h (1 Bft) N-NW 11,2 C 11,5 C 7,0 km/h (2 Bft)
26.05.2013 20:00 11,5 C 98 % 1002,4 hPa 0,0 l/m 2,1 km/h (1 Bft) N-NW 11,1 C 11,5 C 4,4 km/h (1 Bft)
26.05.2013 21:00 11,3 C 98 % 1002,6 hPa 0,4 l/m 3,2 km/h (1 Bft) N-NW 11,0 C 11,3 C 6,4 km/h (2 Bft)
26.05.2013 22:00 11,2 C 98 % 1003,0 hPa 0,0 l/m 3,1 km/h (1 Bft) N-NW 10,9 C 11,2 C 6,0 km/h (2 Bft)
26.05.2013 23:00 10,9 C 98 % 1003,3 hPa 0,0 l/m 3,7 km/h (1 Bft) N-NO 10,6 C 10,9 C 6,9 km/h (2 Bft)
Min-Datum _ 23.05.13 23.05.13 26.05.13 - 20.05.13 - 23.05.13 23.05.13 20.05.13
_ Min-Zeit 05:15 13:30 14:15 - 00:00 - 05:15 05:15 00:00
Minimum _ 1,5 C 55 % 1001,9 hPa - 0,0 km/h (0 Bft) - 0,6 C 1,5 C 0,0 km/h (0 Bft)
Max-Datum _ 21.05.13 26.05.13 24.05.13 26.05.13 22.05.13 - 20.05.13 21.05.13 22.05.13
_ Max-Zeit 16:45 06:45 23:25 05:35 20:35 - 17:40 16:45 17:55
Maximum _ 16,8 C 98 % 1013,2 hPa 4,2 l/m 14,1 km/h
W-NW (3 Bft)
- 12,0 C 16,8 C 35,4 km/h
W (5 Bft)
Durchschnitt _ 9,8 C 88 % 1007,8 hPa #102,8 l/m 3,3 km/h (1 Bft) W 7,8 C 9,7 C 8,3 km/h (2 Bft)